Time;durP1;ratioP1;P1;durP2;ratioP2;P2;SDS_P1;SDS_P2;PMS_P1;PMS_P2;Temp;Humidity;BMP_temperature;BMP_pressure;BME280_temperature;BME280_humidity;BME280_pressure;Samples;Min_cycle;Max_cycle;Signal;HPM_P1;HPM_P2
2022/07/13 00:01:08;;;;;;;2.50;1.13;;;;;;;;;;4986163;28;20208;-80
2022/07/13 00:03:33;;;;;;;2.13;0.88;;;;;;;;;;5002543;28;20030;-80
2022/07/13 00:05:58;;;;;;;2.75;1.10;;;;;;;;;;5002938;28;20219;-78
2022/07/13 00:08:24;;;;;;;5.70;1.15;;;;;;;;;;5002982;28;20019;-80
2022/07/13 00:10:49;;;;;;;4.93;1.00;;;;;;;;;;5004036;28;20057;-80
2022/07/13 00:13:15;;;;;;;2.22;1.00;;;;;;;;;;5003750;28;20026;-80
2022/07/13 00:15:40;;;;;;;2.30;1.00;;;;;;;;;;5003215;28;20022;-80
2022/07/13 00:18:06;;;;;;;1.23;0.85;;;;;;;;;;5002528;28;20027;-80
2022/07/13 00:20:31;;;;;;;1.63;0.98;;;;;;;;;;5002678;28;20022;-80
2022/07/13 00:22:57;;;;;;;2.20;0.90;;;;;;;;;;5003130;28;20026;-80
2022/07/13 00:25:22;;;;;;;4.35;1.00;;;;;;;;;;5003420;28;20322;-78
2022/07/13 00:27:47;;;;;;;3.35;0.90;;;;;;;;;;4985907;28;20109;-80
2022/07/13 00:30:13;;;;;;;1.50;0.82;;;;;;;;;;5003484;28;20217;-80
2022/07/13 00:32:38;;;;;;;1.73;0.70;;;;;;;;;;5001744;28;20032;-79
2022/07/13 00:35:04;;;;;;;2.60;0.95;;;;;;;;;;5003718;28;20034;-79
2022/07/13 00:37:30;;;;;;;2.25;0.90;;;;;;;;;;5003333;28;20026;-80
2022/07/13 00:39:55;;;;;;;1.55;0.80;;;;;;;;;;5003597;28;20030;-80
2022/07/13 00:42:21;;;;;;;4.82;0.90;;;;;;;;;;5003409;28;20030;-80
2022/07/13 00:44:46;;;;;;;3.05;0.80;;;;;;;;;;5003438;28;20029;-79
2022/07/13 00:47:12;;;;;;;2.60;0.75;;;;;;;;;;5002684;28;20048;-80
2022/07/13 00:49:38;;;;;;;1.95;0.90;;;;;;;;;;5001547;28;20061;-80
2022/07/13 00:52:04;;;;;;;2.30;0.80;;;;;;;;;;5002129;28;20030;-80
2022/07/13 00:54:30;;;;;;;1.40;1.00;;;;;;;;;;5001812;28;20097;-80
2022/07/13 00:56:59;;;;;;;1.83;0.85;;;;;;;;;;5002490;28;20023;-80
2022/07/13 00:59:25;;;;;;;1.35;0.70;;;;;;;;;;5001976;28;20030;-80
2022/07/13 01:01:52;;;;;;;0.90;0.80;;;;;;;;;;5002108;28;20453;-80
2022/07/13 01:04:21;;;;;;;1.95;0.90;;;;;;;;;;5001559;28;20041;-80
2022/07/13 01:06:47;;;;;;;1.08;0.80;;;;;;;;;;5001894;28;20061;-80
2022/07/13 01:09:12;;;;;;;2.22;0.90;;;;;;;;;;5001721;28;20145;-80
2022/07/13 01:11:39;;;;;;;1.83;0.82;;;;;;;;;;5001901;28;20034;-80
2022/07/13 01:14:05;;;;;;;1.77;1.00;;;;;;;;;;5002292;28;20207;-79
2022/07/13 01:16:31;;;;;;;1.80;0.80;;;;;;;;;;5001638;28;20369;-80
2022/07/13 01:18:57;;;;;;;2.97;0.98;;;;;;;;;;5001038;28;20022;-79
2022/07/13 01:21:25;;;;;;;4.47;1.38;;;;;;;;;;5001873;28;20308;-80
2022/07/13 01:23:51;;;;;;;4.55;1.50;;;;;;;;;;5001164;28;20076;-79
2022/07/13 01:26:16;;;;;;;2.22;1.40;;;;;;;;;;5001211;28;20034;-80
2022/07/13 01:28:42;;;;;;;4.57;1.63;;;;;;;;;;5001064;28;20038;-79
2022/07/13 01:31:07;;;;;;;2.88;1.40;;;;;;;;;;5000957;28;20038;-80
2022/07/13 01:33:33;;;;;;;2.30;1.50;;;;;;;;;;5000930;28;20046;-80
2022/07/13 01:35:59;;;;;;;4.90;1.55;;;;;;;;;;4983733;28;20026;-80
2022/07/13 01:38:24;;;;;;;3.03;1.42;;;;;;;;;;5000998;28;20429;-80
2022/07/13 01:40:50;;;;;;;3.38;1.40;;;;;;;;;;5000966;28;20104;-79
2022/07/13 01:43:17;;;;;;;4.05;1.40;;;;;;;;;;5001199;28;20110;-76
2022/07/13 01:45:44;;;;;;;3.42;1.30;;;;;;;;;;5000552;28;20054;-79
2022/07/13 01:48:10;;;;;;;4.30;1.35;;;;;;;;;;5000659;28;20041;-80
2022/07/13 01:50:36;;;;;;;4.53;1.25;;;;;;;;;;5000501;28;20053;-79
2022/07/13 01:53:01;;;;;;;5.63;1.40;;;;;;;;;;5001042;28;20030;-78
2022/07/13 01:55:26;;;;;;;2.50;1.40;;;;;;;;;;5000785;28;20347;-76
2022/07/13 01:57:59;;;;;;;4.82;1.23;;;;;;;;;;5001005;28;20046;-79
2022/07/13 02:00:25;;;;;;;4.00;1.33;;;;;;;;;;5001878;28;20045;-78
2022/07/13 02:02:51;;;;;;;4.95;1.33;;;;;;;;;;5002270;28;20065;-79
2022/07/13 02:05:17;;;;;;;5.50;1.30;;;;;;;;;;5002053;28;20022;-79
2022/07/13 02:07:43;;;;;;;2.90;1.30;;;;;;;;;;5000731;28;20058;-80
2022/07/13 02:10:10;;;;;;;2.95;1.20;;;;;;;;;;5002085;28;20030;-79
2022/07/13 02:12:35;;;;;;;3.53;1.33;;;;;;;;;;5002044;28;20050;-80
2022/07/13 02:15:01;;;;;;;1.98;1.10;;;;;;;;;;5001957;28;20413;-80
2022/07/13 02:17:26;;;;;;;3.92;1.40;;;;;;;;;;5002108;28;20053;-80
2022/07/13 02:19:52;;;;;;;3.40;1.20;;;;;;;;;;5001909;28;20313;-79
2022/07/13 02:22:17;;;;;;;7.28;1.30;;;;;;;;;;5002030;28;20109;-79
2022/07/13 02:24:43;;;;;;;2.88;1.17;;;;;;;;;;5001957;28;20110;-79
2022/07/13 02:27:08;;;;;;;3.38;1.20;;;;;;;;;;5001992;28;20374;-79
2022/07/13 02:29:34;;;;;;;4.75;1.23;;;;;;;;;;5001803;28;20030;-80
2022/07/13 02:31:59;;;;;;;6.88;1.40;;;;;;;;;;5001894;28;20038;-80
2022/07/13 02:34:27;;;;;;;3.80;1.10;;;;;;;;;;5001838;28;20023;-78
2022/07/13 02:36:56;;;;;;;5.43;1.40;;;;;;;;;;4996766;28;20368;-84
2022/07/13 02:39:22;;;;;;;4.70;1.40;;;;;;;;;;4995093;28;20026;-86
2022/07/13 02:41:49;;;;;;;3.83;1.45;;;;;;;;;;4995025;28;20034;-85
2022/07/13 02:44:15;;;;;;;4.35;1.40;;;;;;;;;;4998091;28;20030;-86
2022/07/13 02:46:40;;;;;;;3.22;1.35;;;;;;;;;;4995616;28;20038;-85
2022/07/13 02:49:06;;;;;;;2.53;1.40;;;;;;;;;;4995582;28;20030;-85
2022/07/13 02:51:31;;;;;;;3.78;1.30;;;;;;;;;;4992422;28;20648;-86
2022/07/13 02:53:57;;;;;;;3.00;1.60;;;;;;;;;;4992392;28;20034;-86
2022/07/13 02:56:22;;;;;;;3.33;1.70;;;;;;;;;;4985585;28;20026;-85
2022/07/13 02:58:47;;;;;;;2.70;1.45;;;;;;;;;;5000528;28;20058;-86
2022/07/13 03:01:13;;;;;;;6.43;1.60;;;;;;;;;;4999911;28;20022;-86
2022/07/13 03:03:38;;;;;;;4.85;1.40;;;;;;;;;;4999564;28;20337;-86
2022/07/13 03:06:04;;;;;;;5.18;1.42;;;;;;;;;;4996628;28;20030;-85
2022/07/13 03:08:29;;;;;;;4.72;1.40;;;;;;;;;;4995016;28;20105;-86
2022/07/13 03:10:55;;;;;;;2.42;1.40;;;;;;;;;;4997604;28;20034;-86
2022/07/13 03:13:20;;;;;;;2.97;1.30;;;;;;;;;;5000691;28;20034;-85
2022/07/13 03:15:46;;;;;;;2.95;1.38;;;;;;;;;;4997735;28;20042;-86
2022/07/13 03:18:11;;;;;;;3.75;1.40;;;;;;;;;;5001024;28;20043;-86
2022/07/13 03:20:36;;;;;;;4.15;1.55;;;;;;;;;;4999964;28;20026;-86
2022/07/13 03:23:02;;;;;;;2.72;1.50;;;;;;;;;;4998728;28;20062;-86
2022/07/13 03:25:27;;;;;;;2.45;1.30;;;;;;;;;;4997793;28;20058;-87
2022/07/13 03:27:53;;;;;;;4.65;1.70;;;;;;;;;;4997226;28;20033;-86
2022/07/13 03:30:18;;;;;;;3.45;1.65;;;;;;;;;;5002239;28;20045;-86
2022/07/13 03:32:44;;;;;;;4.85;1.52;;;;;;;;;;4998848;28;20038;-86
2022/07/13 03:35:10;;;;;;;3.90;1.50;;;;;;;;;;4996746;28;20029;-86
2022/07/13 03:37:36;;;;;;;4.57;1.67;;;;;;;;;;4997257;28;20030;-86
2022/07/13 03:40:01;;;;;;;3.90;1.50;;;;;;;;;;4995123;28;20184;-86
2022/07/13 03:42:27;;;;;;;3.05;1.48;;;;;;;;;;4995409;28;20031;-86
2022/07/13 03:44:52;;;;;;;2.65;1.38;;;;;;;;;;4994366;28;20026;-81
2022/07/13 03:47:18;;;;;;;4.00;1.25;;;;;;;;;;4980863;28;20117;-86
2022/07/13 03:49:43;;;;;;;3.75;1.30;;;;;;;;;;4995407;28;20031;-86
2022/07/13 03:52:08;;;;;;;4.40;1.23;;;;;;;;;;4996599;28;20038;-86
2022/07/13 03:54:34;;;;;;;5.30;1.35;;;;;;;;;;4995091;28;20105;-86
2022/07/13 03:56:59;;;;;;;2.42;1.40;;;;;;;;;;4997007;28;20019;-85
2022/07/13 03:59:25;;;;;;;3.97;1.45;;;;;;;;;;4994576;28;20121;-86
2022/07/13 04:01:50;;;;;;;3.60;1.48;;;;;;;;;;4997103;28;20026;-85
2022/07/13 04:04:15;;;;;;;6.03;1.48;;;;;;;;;;4997349;28;20081;-86
2022/07/13 04:06:41;;;;;;;6.75;1.30;;;;;;;;;;4996113;28;20030;-86
2022/07/13 04:09:06;;;;;;;5.18;1.35;;;;;;;;;;4997693;28;20022;-85
2022/07/13 04:11:32;;;;;;;2.53;1.30;;;;;;;;;;4995211;28;20034;-85
2022/07/13 04:13:57;;;;;;;5.43;1.48;;;;;;;;;;4999364;28;20018;-84
2022/07/13 04:16:22;;;;;;;6.45;1.40;;;;;;;;;;5003075;28;20034;-84
2022/07/13 04:18:48;;;;;;;11.27;1.30;;;;;;;;;;4995343;28;20033;-84
2022/07/13 04:21:14;;;;;;;4.85;1.60;;;;;;;;;;5000502;28;20068;-84
2022/07/13 04:23:40;;;;;;;5.53;1.60;;;;;;;;;;4996951;28;20105;-84
2022/07/13 04:26:06;;;;;;;3.88;1.20;;;;;;;;;;4999730;28;20030;-85
2022/07/13 04:28:31;;;;;;;6.25;1.48;;;;;;;;;;4997219;28;20030;-84
2022/07/13 04:30:57;;;;;;;9.38;1.42;;;;;;;;;;4997800;28;20117;-84
2022/07/13 04:33:22;;;;;;;6.30;1.45;;;;;;;;;;4996138;28;20034;-84
2022/07/13 04:35:48;;;;;;;4.43;1.38;;;;;;;;;;4994096;28;20514;-85
2022/07/13 04:38:13;;;;;;;6.43;1.63;;;;;;;;;;4995677;28;20030;-84
2022/07/13 04:40:39;;;;;;;9.80;1.67;;;;;;;;;;4997187;28;20034;-85
2022/07/13 04:43:05;;;;;;;4.07;1.40;;;;;;;;;;4994567;28;20044;-85
2022/07/13 04:45:32;;;;;;;7.50;1.40;;;;;;;;;;4993160;28;20030;-84
2022/07/13 04:47:58;;;;;;;6.35;1.48;;;;;;;;;;4994978;28;20041;-84
2022/07/13 04:50:23;;;;;;;6.30;1.70;;;;;;;;;;4994898;28;20489;-84
2022/07/13 04:52:49;;;;;;;5.35;1.60;;;;;;;;;;4993689;28;20026;-84
2022/07/13 04:55:16;;;;;;;6.05;1.20;;;;;;;;;;4996711;28;20041;-85
2022/07/13 04:57:41;;;;;;;5.15;1.67;;;;;;;;;;4994846;28;20137;-85
2022/07/13 05:00:08;;;;;;;5.15;1.45;;;;;;;;;;4994103;28;20080;-83
2022/07/13 05:02:33;;;;;;;5.88;1.70;;;;;;;;;;4994116;28;20089;-84
2022/07/13 05:04:59;;;;;;;5.65;1.50;;;;;;;;;;4997614;28;20030;-84
2022/07/13 05:07:24;;;;;;;3.80;1.52;;;;;;;;;;4996634;28;20398;-85
2022/07/13 05:09:50;;;;;;;5.80;1.77;;;;;;;;;;4996251;28;20033;-85
2022/07/13 05:12:15;;;;;;;6.47;1.60;;;;;;;;;;4994311;28;20026;-84
2022/07/13 05:14:41;;;;;;;7.65;1.70;;;;;;;;;;4996346;28;20030;-85
2022/07/13 05:17:06;;;;;;;6.90;1.63;;;;;;;;;;4994583;28;20310;-85
2022/07/13 05:19:32;;;;;;;4.80;1.70;;;;;;;;;;4996170;28;20030;-84
2022/07/13 05:21:57;;;;;;;9.57;1.80;;;;;;;;;;4991886;28;20446;-84
2022/07/13 05:24:23;;;;;;;7.85;1.70;;;;;;;;;;4991666;28;20056;-84
2022/07/13 05:26:48;;;;;;;9.50;1.73;;;;;;;;;;4994274;28;20033;-84
2022/07/13 05:29:13;;;;;;;8.30;1.80;;;;;;;;;;4997697;28;20334;-85
2022/07/13 05:31:39;;;;;;;8.60;1.80;;;;;;;;;;4999450;28;20032;-85
2022/07/13 05:34:04;;;;;;;6.10;1.77;;;;;;;;;;4994594;28;20038;-82
2022/07/13 05:36:30;;;;;;;7.18;1.80;;;;;;;;;;4995809;28;20030;-83
2022/07/13 05:38:55;;;;;;;11.13;2.10;;;;;;;;;;4999447;28;20030;-82
2022/07/13 05:41:21;;;;;;;8.65;1.80;;;;;;;;;;4995623;28;20045;-80
2022/07/13 05:43:47;;;;;;;10.88;2.15;;;;;;;;;;4997866;28;20110;-84
2022/07/13 05:46:12;;;;;;;9.32;1.92;;;;;;;;;;4996751;28;20085;-82
2022/07/13 05:48:38;;;;;;;7.03;1.88;;;;;;;;;;4997800;28;20034;-85
2022/07/13 05:51:03;;;;;;;12.10;2.00;;;;;;;;;;4994224;28;20037;-85
2022/07/13 05:53:29;;;;;;;11.18;2.22;;;;;;;;;;4995319;28;20030;-84
2022/07/13 05:55:54;;;;;;;13.05;1.95;;;;;;;;;;4994140;28;20382;-83
2022/07/13 05:58:21;;;;;;;9.40;1.80;;;;;;;;;;4993341;28;20042;-85
2022/07/13 06:00:46;;;;;;;7.70;1.90;;;;;;;;;;4997629;28;20114;-86
2022/07/13 06:03:12;;;;;;;4.57;1.70;;;;;;;;;;4997063;28;20030;-84
2022/07/13 06:05:37;;;;;;;10.07;2.00;;;;;;;;;;4995876;28;20026;-84
2022/07/13 06:08:03;;;;;;;7.38;1.75;;;;;;;;;;4994109;28;20108;-81
2022/07/13 06:10:28;;;;;;;8.55;1.75;;;;;;;;;;4994280;28;20381;-82
2022/07/13 06:12:53;;;;;;;9.65;2.03;;;;;;;;;;4993801;28;20414;-82
2022/07/13 06:15:19;;;;;;;9.75;1.98;;;;;;;;;;4995664;28;20053;-82
2022/07/13 06:17:44;;;;;;;12.30;2.40;;;;;;;;;;4994873;28;20019;-82
2022/07/13 06:20:10;;;;;;;15.48;2.53;;;;;;;;;;4991812;28;20026;-80
2022/07/13 06:22:36;;;;;;;16.20;2.20;;;;;;;;;;4991038;28;20042;-85
2022/07/13 06:25:03;;;;;;;21.13;2.83;;;;;;;;;;4990767;28;20022;-89
2022/07/13 06:27:29;;;;;;;9.20;2.33;;;;;;;;;;4990608;28;20030;-80
2022/07/13 06:29:54;;;;;;;16.98;3.30;;;;;;;;;;4993168;28;20081;-83
2022/07/13 06:32:20;;;;;;;14.80;2.58;;;;;;;;;;4994120;28;20034;-81
2022/07/13 06:34:45;;;;;;;15.10;2.75;;;;;;;;;;4995034;28;20022;-88
2022/07/13 06:37:11;;;;;;;16.58;2.65;;;;;;;;;;4998364;28;20029;-84
2022/07/13 06:39:36;;;;;;;16.73;2.72;;;;;;;;;;4989398;28;20026;-76
2022/07/13 06:42:02;;;;;;;16.33;2.50;;;;;;;;;;4999830;28;20624;-77
2022/07/13 06:44:27;;;;;;;16.90;2.58;;;;;;;;;;4994715;28;20034;-81
2022/07/13 06:46:53;;;;;;;15.13;2.60;;;;;;;;;;4992220;28;20050;-84
2022/07/13 06:49:18;;;;;;;14.27;2.55;;;;;;;;;;4991846;28;20026;-81
2022/07/13 06:51:43;;;;;;;14.63;2.67;;;;;;;;;;4974804;28;20065;-79
2022/07/13 06:54:09;;;;;;;16.40;2.58;;;;;;;;;;4992738;28;20406;-80
2022/07/13 06:56:34;;;;;;;13.48;2.92;;;;;;;;;;4986316;28;20069;-77
2022/07/13 06:59:00;;;;;;;12.75;2.60;;;;;;;;;;4981462;28;20057;-77
2022/07/13 07:01:25;;;;;;;12.13;2.22;;;;;;;;;;4993638;28;20034;-77
2022/07/13 07:03:51;;;;;;;13.88;2.55;;;;;;;;;;4993058;28;20041;-78
2022/07/13 07:06:16;;;;;;;12.00;2.20;;;;;;;;;;4974032;28;20022;-75
2022/07/13 07:08:42;;;;;;;10.68;2.40;;;;;;;;;;4990934;28;20037;-77
2022/07/13 07:11:07;;;;;;;10.55;2.45;;;;;;;;;;4980907;28;20042;-77
2022/07/13 07:13:33;;;;;;;13.70;2.30;;;;;;;;;;4990409;28;20034;-77
2022/07/13 07:15:59;;;;;;;9.70;2.15;;;;;;;;;;4990379;28;20080;-76
2022/07/13 07:18:24;;;;;;;11.50;2.22;;;;;;;;;;4991360;28;20026;-80
2022/07/13 07:20:50;;;;;;;8.90;1.88;;;;;;;;;;4991391;28;20022;-82
2022/07/13 07:23:16;;;;;;;5.88;2.00;;;;;;;;;;4992626;28;20023;-83
2022/07/13 07:25:42;;;;;;;14.57;2.10;;;;;;;;;;4992514;28;20057;-81
2022/07/13 07:28:07;;;;;;;9.77;2.05;;;;;;;;;;4991925;28;20035;-82
2022/07/13 07:30:33;;;;;;;13.07;2.20;;;;;;;;;;4993870;28;20037;-78
2022/07/13 07:32:58;;;;;;;6.32;2.10;;;;;;;;;;4992219;28;20030;-87
2022/07/13 07:35:24;;;;;;;12.27;2.40;;;;;;;;;;4992457;28;20025;-80
2022/07/13 07:37:49;;;;;;;7.45;2.33;;;;;;;;;;4991740;28;20035;-82
2022/07/13 07:40:15;;;;;;;7.72;1.95;;;;;;;;;;4991772;28;20534;-78
2022/07/13 07:42:40;;;;;;;12.73;1.83;;;;;;;;;;4974379;28;20096;-75
2022/07/13 07:45:08;;;;;;;8.63;2.00;;;;;;;;;;4993762;28;20456;-75
2022/07/13 07:47:34;;;;;;;13.13;2.00;;;;;;;;;;4990997;28;20026;-73
2022/07/13 07:49:59;;;;;;;7.28;2.40;;;;;;;;;;4974385;28;20114;-74
2022/07/13 07:52:25;;;;;;;11.73;2.30;;;;;;;;;;4991770;28;20129;-76
2022/07/13 07:54:50;;;;;;;19.67;2.33;;;;;;;;;;4992002;28;20117;-73
2022/07/13 07:57:16;;;;;;;15.00;2.20;;;;;;;;;;4952935;28;1133861;-76
2022/07/13 07:59:42;;;;;;;12.57;2.05;;;;;;;;;;4992764;28;20132;-73
2022/07/13 08:02:08;;;;;;;16.55;2.30;;;;;;;;;;4992645;28;20030;-72
2022/07/13 08:04:34;;;;;;;11.25;2.17;;;;;;;;;;4992532;28;20030;-73
2022/07/13 08:07:00;;;;;;;8.48;1.85;;;;;;;;;;4992788;28;20026;-73
2022/07/13 08:09:26;;;;;;;7.78;2.20;;;;;;;;;;4992566;28;20606;-74
2022/07/13 08:11:51;;;;;;;11.48;1.98;;;;;;;;;;4992607;28;20036;-74
2022/07/13 08:14:16;;;;;;;14.90;2.10;;;;;;;;;;4992582;28;20026;-76
2022/07/13 08:16:42;;;;;;;12.88;2.30;;;;;;;;;;4992681;28;20057;-75
2022/07/13 08:19:07;;;;;;;9.88;1.73;;;;;;;;;;4992224;28;20113;-73
2022/07/13 08:21:34;;;;;;;8.65;2.08;;;;;;;;;;4992382;28;20058;-74
2022/07/13 08:23:59;;;;;;;7.22;1.80;;;;;;;;;;4992102;28;20097;-79
2022/07/13 08:26:27;;;;;;;4.85;1.52;;;;;;;;;;4992892;28;20122;-75
2022/07/13 08:28:54;;;;;;;5.10;1.17;;;;;;;;;;4992248;28;20442;-75
2022/07/13 08:31:23;;;;;;;5.25;1.60;;;;;;;;;;4992325;28;20410;-74
2022/07/13 08:39:17;;;;;;;4.07;1.33;;;;;;;;;;4992074;28;20041;-79
2022/07/13 08:41:43;;;;;;;3.25;1.30;;;;;;;;;;4992048;28;20022;-74
2022/07/13 08:44:09;;;;;;;5.05;1.45;;;;;;;;;;4991960;28;20034;-75
2022/07/13 08:46:35;;;;;;;2.05;1.40;;;;;;;;;;4992091;28;20030;-76
2022/07/13 08:49:01;;;;;;;5.50;1.48;;;;;;;;;;4991924;28;20052;-75
2022/07/13 08:51:29;;;;;;;4.80;1.55;;;;;;;;;;4991529;28;20479;-78
2022/07/13 08:53:55;;;;;;;3.38;1.60;;;;;;;;;;4991036;28;20030;-78
2022/07/13 08:56:21;;;;;;;5.88;1.40;;;;;;;;;;4974191;28;20034;-76
2022/07/13 08:58:47;;;;;;;3.10;1.35;;;;;;;;;;4991359;28;20062;-77
2022/07/13 09:01:12;;;;;;;3.85;1.30;;;;;;;;;;4991521;28;20034;-79
2022/07/13 09:03:38;;;;;;;4.60;1.52;;;;;;;;;;4991622;28;20557;-79
2022/07/13 09:06:04;;;;;;;3.38;1.60;;;;;;;;;;4991774;28;20025;-79
2022/07/13 09:08:30;;;;;;;4.72;1.40;;;;;;;;;;4991492;28;20077;-80
2022/07/13 09:10:57;;;;;;;5.07;1.33;;;;;;;;;;4991395;28;20029;-80
2022/07/13 09:13:44;;;;;;;2.28;1.10;;;;;;;;;;4991549;28;20030;-80
2022/07/13 09:16:16;;;;;;;3.10;1.20;;;;;;;;;;4991739;28;20054;-80
2022/07/13 09:19:00;;;;;;;3.40;1.55;;;;;;;;;;4991168;28;20169;-79
2022/07/13 09:21:27;;;;;;;4.25;1.15;;;;;;;;;;4991319;28;20513;-80
2022/07/13 09:24:03;;;;;;;3.70;1.30;;;;;;;;;;4991140;28;20042;-80
2022/07/13 09:26:41;;;;;;;3.60;1.25;;;;;;;;;;4991511;28;20029;-79
2022/07/13 09:29:07;;;;;;;2.85;1.30;;;;;;;;;;4991111;28;20483;-77
2022/07/13 09:31:56;;;;;;;4.38;1.40;;;;;;;;;;4990892;28;20037;-76
2022/07/13 09:34:42;;;;;;;2.70;1.20;;;;;;;;;;4990986;28;20483;-78
2022/07/13 09:37:18;;;;;;;2.70;1.20;;;;;;;;;;4991069;28;20099;-78
2022/07/13 09:40:08;;;;;;;6.50;1.40;;;;;;;;;;4991077;28;20098;-77
2022/07/13 09:42:35;;;;;;;2.28;1.35;;;;;;;;;;4991022;28;20041;-78
2022/07/13 09:47:50;;;;;;;2.75;1.27;;;;;;;;;;4991267;28;20073;-76
2022/07/13 09:50:19;;;;;;;2.78;1.30;;;;;;;;;;4990758;28;20394;-77
2022/07/13 09:52:46;;;;;;;4.28;1.40;;;;;;;;;;4990581;28;20031;-77
2022/07/13 09:55:12;;;;;;;1.90;1.40;;;;;;;;;;4990792;28;20022;-78
2022/07/13 09:57:51;;;;;;;2.03;1.17;;;;;;;;;;4990664;28;20054;-78
2022/07/13 10:00:17;;;;;;;3.38;1.20;;;;;;;;;;4990818;28;20121;-80
2022/07/13 10:02:47;;;;;;;3.40;1.30;;;;;;;;;;4990680;28;20077;-77
2022/07/13 10:05:14;;;;;;;2.42;1.20;;;;;;;;;;4990423;28;20030;-76
2022/07/13 10:07:42;;;;;;;6.57;1.23;;;;;;;;;;4990596;28;20076;-78
2022/07/13 10:10:07;;;;;;;2.85;1.10;;;;;;;;;;4990350;28;20375;-78
2022/07/13 10:12:36;;;;;;;3.65;1.13;;;;;;;;;;4990334;28;20624;-77
2022/07/13 10:15:02;;;;;;;3.15;1.08;;;;;;;;;;4990656;28;20019;-79
2022/07/13 10:17:27;;;;;;;2.90;1.10;;;;;;;;;;4990750;28;20041;-79
2022/07/13 10:19:55;;;;;;;3.72;1.30;;;;;;;;;;4990495;28;20030;-79
2022/07/13 10:22:25;;;;;;;2.90;1.10;;;;;;;;;;4990275;28;20026;-79
2022/07/13 10:24:59;;;;;;;2.85;1.10;;;;;;;;;;4990330;28;20541;-79
2022/07/13 10:27:33;;;;;;;3.90;1.27;;;;;;;;;;4990430;28;20034;-79
2022/07/13 10:30:06;;;;;;;2.60;1.20;;;;;;;;;;4990379;28;20038;-79
2022/07/13 10:32:40;;;;;;;2.30;1.20;;;;;;;;;;4990284;28;20045;-79
2022/07/13 10:35:10;;;;;;;3.25;1.10;;;;;;;;;;4990502;28;20076;-80
2022/07/13 10:37:58;;;;;;;3.65;1.23;;;;;;;;;;4972906;28;20058;-80
2022/07/13 10:40:27;;;;;;;2.17;1.10;;;;;;;;;;4990389;28;20045;-79
2022/07/13 10:42:53;;;;;;;3.60;1.17;;;;;;;;;;4990213;28;20045;-80
2022/07/13 10:45:44;;;;;;;3.20;1.10;;;;;;;;;;4990351;28;20042;-79
2022/07/13 10:48:34;;;;;;;2.42;1.00;;;;;;;;;;4990525;28;20037;-79
2022/07/13 10:51:00;;;;;;;1.92;1.20;;;;;;;;;;4989977;28;20447;-76
2022/07/13 10:53:38;;;;;;;3.25;1.00;;;;;;;;;;4990433;28;20030;-79
2022/07/13 10:56:14;;;;;;;2.10;1.20;;;;;;;;;;4990110;28;20578;-76
2022/07/13 10:58:40;;;;;;;1.42;1.00;;;;;;;;;;4990326;28;20046;-79
2022/07/13 11:01:30;;;;;;;2.90;1.30;;;;;;;;;;4989787;28;20031;-79
2022/07/13 11:03:56;;;;;;;1.63;0.98;;;;;;;;;;4990206;28;20045;-78
2022/07/13 11:06:26;;;;;;;2.53;1.05;;;;;;;;;;4972638;28;20495;-80
2022/07/13 11:09:09;;;;;;;2.83;1.05;;;;;;;;;;4990222;28;20058;-80
2022/07/13 11:11:53;;;;;;;2.33;1.20;;;;;;;;;;4989811;28;20030;-80
2022/07/13 11:14:36;;;;;;;2.88;1.20;;;;;;;;;;4990284;28;20566;-79
2022/07/13 11:17:30;;;;;;;2.03;1.30;;;;;;;;;;4993135;28;20037;-79
2022/07/13 11:20:09;;;;;;;2.10;1.23;;;;;;;;;;4993563;28;20023;-80
2022/07/13 11:25:24;;;;;;;2.08;1.25;;;;;;;;;;4993942;28;20084;-79
2022/07/13 11:28:11;;;;;;;2.50;1.30;;;;;;;;;;4993768;28;20594;-79
2022/07/13 11:30:43;;;;;;;4.78;1.25;;;;;;;;;;4993492;28;20038;-78
2022/07/13 11:33:12;;;;;;;2.42;1.30;;;;;;;;;;4993285;28;20034;-79
2022/07/13 11:35:43;;;;;;;3.00;1.50;;;;;;;;;;4993313;28;20030;-79
2022/07/13 11:38:10;;;;;;;2.38;1.40;;;;;;;;;;4993196;28;20033;-80
2022/07/13 11:40:35;;;;;;;5.35;1.55;;;;;;;;;;4993136;28;20560;-79
2022/07/13 11:43:02;;;;;;;2.53;1.55;;;;;;;;;;4993191;28;20022;-80
2022/07/13 11:45:30;;;;;;;3.15;1.73;;;;;;;;;;4993145;28;20030;-80
2022/07/13 11:48:03;;;;;;;2.85;2.03;;;;;;;;;;4993266;28;20429;-80
2022/07/13 11:50:58;;;;;;;3.25;2.08;;;;;;;;;;4993088;28;20113;-79
2022/07/13 11:53:28;;;;;;;3.80;2.40;;;;;;;;;;4975675;28;20653;-79
2022/07/13 11:55:56;;;;;;;;;;;;;;;;;;4993338;28;20057;-80
2022/07/13 11:58:28;;;;;;;3.78;2.33;;;;;;;;;;4992739;28;19972;-78
2022/07/13 12:00:54;;;;;;;3.97;2.40;;;;;;;;;;4992893;28;20117;-79
2022/07/13 12:03:33;;;;;;;3.30;2.22;;;;;;;;;;4993049;28;20101;-80
2022/07/13 12:06:01;;;;;;;5.13;2.35;;;;;;;;;;4992800;28;20461;-79
2022/07/13 12:08:27;;;;;;;4.50;2.40;;;;;;;;;;4992977;28;20411;-80
2022/07/13 12:10:52;;;;;;;5.25;2.28;;;;;;;;;;4992472;28;20030;-80
2022/07/13 12:13:18;;;;;;;4.47;2.00;;;;;;;;;;4992556;28;20390;-80
2022/07/13 12:15:46;;;;;;;4.70;2.13;;;;;;;;;;4992421;28;20037;-78
2022/07/13 12:18:13;;;;;;;3.03;2.33;;;;;;;;;;4992851;28;20034;-80
2022/07/13 12:20:39;;;;;;;4.93;3.33;;;;;;;;;;4992716;28;20023;-79
2022/07/13 12:23:08;;;;;;;5.60;3.60;;;;;;;;;;4992330;28;20113;-79
2022/07/13 12:25:39;;;;;;;5.03;2.93;;;;;;;;;;4992625;28;20053;-80
2022/07/13 12:28:09;;;;;;;5.95;2.85;;;;;;;;;;4991064;28;20344;-79
2022/07/13 12:30:37;;;;;;;4.53;2.92;;;;;;;;;;4992367;28;20109;-79
2022/07/13 12:33:10;;;;;;;4.55;2.80;;;;;;;;;;4991964;28;20053;-79
2022/07/13 12:35:40;;;;;;;3.47;2.80;;;;;;;;;;4992311;28;20030;-79
2022/07/13 12:38:12;;;;;;;3.78;2.83;;;;;;;;;;4992021;28;20663;-79
2022/07/13 12:40:55;;;;;;;4.45;3.03;;;;;;;;;;4992450;28;20486;-78
2022/07/13 12:43:31;;;;;;;3.55;2.90;;;;;;;;;;4992023;28;20030;-77
2022/07/13 12:46:02;;;;;;;5.00;3.30;;;;;;;;;;4992059;28;20026;-79
2022/07/13 12:48:35;;;;;;;5.40;3.20;;;;;;;;;;4991981;28;20391;-79
2022/07/13 12:51:05;;;;;;;5.78;3.65;;;;;;;;;;4991766;28;20512;-72
2022/07/13 12:53:51;;;;;;;5.75;2.92;;;;;;;;;;4991722;28;20100;-72
2022/07/13 12:56:18;;;;;;;6.35;3.20;;;;;;;;;;4991931;28;20030;-72
2022/07/13 12:58:49;;;;;;;6.82;3.05;;;;;;;;;;4991756;28;20392;-72
2022/07/13 13:01:35;;;;;;;3.60;3.10;;;;;;;;;;4991754;28;20507;-72
2022/07/13 13:04:02;;;;;;;6.15;3.22;;;;;;;;;;4991737;28;20029;-80
2022/07/13 13:06:29;;;;;;;6.00;3.40;;;;;;;;;;4991613;28;20129;-79
2022/07/13 13:09:05;;;;;;;4.88;4.07;;;;;;;;;;4991473;28;20034;-78
2022/07/13 13:11:32;;;;;;;6.97;4.30;;;;;;;;;;4991399;28;20109;-79
2022/07/13 13:13:57;;;;;;;8.18;4.20;;;;;;;;;;4991654;28;20046;-78
2022/07/13 13:16:23;;;;;;;4.95;4.20;;;;;;;;;;4991562;28;20026;-76
2022/07/13 13:18:48;;;;;;;5.53;4.22;;;;;;;;;;4991555;28;20031;-75
2022/07/13 13:21:13;;;;;;;5.63;4.00;;;;;;;;;;4991453;28;20045;-78
2022/07/13 13:23:39;;;;;;;6.82;3.90;;;;;;;;;;4991073;28;20030;-78
2022/07/13 13:26:04;;;;;;;4.38;3.60;;;;;;;;;;4991305;28;20025;-79
2022/07/13 13:30:43;;;;;;;6.00;3.60;;;;;;;;;;4991125;28;20434;-78
2022/07/13 13:31:15;;;;;;;5.45;3.40;;;;;;;;;;4990943;28;20029;-79
2022/07/13 13:33:40;;;;;;;4.88;3.50;;;;;;;;;;4991088;28;20023;-79
2022/07/13 13:36:06;;;;;;;4.43;3.53;;;;;;;;;;4991343;28;20038;-79
2022/07/13 13:38:31;;;;;;;8.77;3.63;;;;;;;;;;4990427;28;20443;-79
2022/07/13 13:40:57;;;;;;;5.28;3.33;;;;;;;;;;4991021;28;20117;-79
2022/07/13 13:43:23;;;;;;;5.53;3.53;;;;;;;;;;4973289;28;20060;-79
2022/07/13 13:45:48;;;;;;;5.28;3.50;;;;;;;;;;4990964;28;20061;-77
2022/07/13 13:48:14;;;;;;;6.50;3.35;;;;;;;;;;4990990;28;20037;-77
2022/07/13 13:50:39;;;;;;;4.95;3.35;;;;;;;;;;4990997;28;20125;-78
2022/07/13 13:53:05;;;;;;;7.30;3.70;;;;;;;;;;4990545;28;20117;-76
2022/07/13 13:55:30;;;;;;;5.05;3.50;;;;;;;;;;4991054;28;20030;-76
2022/07/13 13:57:56;;;;;;;5.72;3.50;;;;;;;;;;4990469;28;20046;-78
2022/07/13 14:00:22;;;;;;;6.70;3.53;;;;;;;;;;4990803;28;20089;-77
2022/07/13 14:02:47;;;;;;;4.45;3.53;;;;;;;;;;4990379;28;20057;-77
2022/07/13 14:05:12;;;;;;;7.63;3.60;;;;;;;;;;4990870;28;20031;-77
2022/07/13 14:07:38;;;;;;;7.25;3.53;;;;;;;;;;4990564;28;20077;-77
2022/07/13 14:10:05;;;;;;;4.78;3.55;;;;;;;;;;4991028;28;20426;-76
2022/07/13 14:12:30;;;;;;;4.55;3.35;;;;;;;;;;4990733;28;20037;-77
2022/07/13 14:14:56;;;;;;;4.53;3.58;;;;;;;;;;4990803;28;20034;-75
2022/07/13 14:17:21;;;;;;;6.80;3.50;;;;;;;;;;4990534;28;20022;-78
2022/07/13 14:19:47;;;;;;;5.20;3.22;;;;;;;;;;4990703;28;20034;-78
2022/07/13 14:22:13;;;;;;;5.40;3.60;;;;;;;;;;4990109;28;20751;-78
2022/07/13 14:24:38;;;;;;;5.10;3.70;;;;;;;;;;4990679;28;20126;-77
2022/07/13 14:27:04;;;;;;;8.23;3.72;;;;;;;;;;4990557;28;20485;-76
2022/07/13 14:29:29;;;;;;;4.70;3.53;;;;;;;;;;4990509;28;20486;-76
2022/07/13 14:31:57;;;;;;;5.65;3.53;;;;;;;;;;4990541;28;20039;-75
2022/07/13 14:34:23;;;;;;;5.70;3.55;;;;;;;;;;4990074;28;20054;-77
2022/07/13 14:36:49;;;;;;;5.00;3.90;;;;;;;;;;4972880;28;20072;-76
2022/07/13 14:39:14;;;;;;;7.00;3.67;;;;;;;;;;4989968;28;20096;-76
2022/07/13 14:41:39;;;;;;;6.50;3.47;;;;;;;;;;4990469;28;20038;-76
2022/07/13 14:44:05;;;;;;;4.75;3.63;;;;;;;;;;4990316;28;20076;-76
2022/07/13 14:46:30;;;;;;;4.03;3.47;;;;;;;;;;4990626;28;20076;-76
2022/07/13 14:48:56;;;;;;;6.80;3.50;;;;;;;;;;4990313;28;20019;-74
2022/07/13 14:51:21;;;;;;;6.10;3.55;;;;;;;;;;4992641;28;20031;-74
2022/07/13 14:53:48;;;;;;;5.15;3.58;;;;;;;;;;4993704;28;20093;-73